Villa Nueva, Texas
Current Conditions -  °F | °C
As of 5:53 PM on Tuesday 25 Nov 2014 (Local Time) from KBRO Reporting Station
Clear Clear  
Wind Chill: 57°   Ceiling: Unl
Heat Index: 57°   Visibility: 10mi
Dew Point: 41°   Wind: 6mph
Humidity: 55%   Direction: 30°NNE
Pressure: 30.29"   Gusts: NA
Location:  26.0002°N, 97.5729°W
Report Text: KBRO 252353Z 03005KT 10SM CLR 14/05 A3029 RMK AO2 SLP255 T01390050 10211 20139 53002
Loading
Personal Weather Stations






























Interactive Weather Map New forecast layout! Learn more

10-Day Weather Forecast

Advertisements
Track Severe Weather on mobile